Řízení letového provozu České republiky
Letiste: LKPD Aktualizace: 23.08.2017 07:08:06  UTC
 METAR LKPD 23.08. 07:00 ...
METAR LKPD 230700Z 25003KT 220V290 CAVOK 13/09 Q1020 NOSIG =
 TAF LKPD 23.08. 05:00 ...
TAF LKPD 230500Z 2306/2406 VRB02KT CAVOK      TEMPO 2308/2311 SCT040      TEMPO 2312/2318 30008KT=